Time;durP1;ratioP1;P1;durP2;ratioP2;P2;SDS_P1;SDS_P2;PMS_P1;PMS_P2;Temp;Humidity;BMP_temperature;BMP_pressure;BME280_temperature;BME280_humidity;BME280_pressure;Samples;Min_cycle;Max_cycle;Signal;HPM_P1;HPM_P2
2022/06/29 00:00:09;;;;;;;3.53;1.50;;;21.70;82.50;;;;;;6169684;23;20033;-82
2022/06/29 00:02:35;;;;;;;3.83;1.52;;;21.60;82.20;;;;;;6168842;23;20009;-83
2022/06/29 00:05:05;;;;;;;4.25;2.15;;;21.60;82.50;;;;;;6192618;23;20059;-82
2022/06/29 00:07:31;;;;;;;5.32;1.70;;;21.60;82.30;;;;;;6163933;23;20092;-81
2022/06/29 00:09:57;;;;;;;3.80;1.40;;;24.10;83.50;;;;;;6189872;23;20009;-82
2022/06/29 00:12:22;;;;;;;3.30;1.42;;;21.70;82.20;;;;;;6188418;23;20009;-81
2022/06/29 00:14:48;;;;;;;5.15;1.58;;;21.60;82.20;;;;;;6189131;23;19997;-81
2022/06/29 00:17:14;;;;;;;2.70;1.58;;;21.50;82.00;;;;;;6189237;23;20008;-80
2022/06/29 00:19:40;;;;;;;5.95;3.13;;;21.60;82.20;;;;;;6188938;23;20012;-81
2022/06/29 00:22:08;;;;;;;4.05;2.10;;;21.60;82.00;;;;;;6188975;23;20001;-83
2022/06/29 00:24:34;;;;;;;3.15;1.80;;;21.60;82.10;;;;;;6164217;23;20013;-82
2022/06/29 00:27:01;;;;;;;4.55;1.70;;;21.60;81.80;;;;;;6164547;23;20009;-81
2022/06/29 00:29:28;;;;;;;4.35;1.90;;;21.60;82.10;;;;;;6162890;23;20037;-81
2022/06/29 00:31:54;;;;;;;3.40;1.95;;;21.60;82.30;;;;;;6165059;23;20001;-81
2022/06/29 00:34:19;;;;;;;3.22;1.70;;;21.60;82.30;;;;;;6188973;23;20001;-83
2022/06/29 00:36:45;;;;;;;6.18;1.60;;;21.60;82.90;;;;;;6189833;23;20028;-83
2022/06/29 00:39:11;;;;;;;6.28;1.23;;;21.50;82.60;;;;;;6189657;23;20024;-82
2022/06/29 00:41:45;;;;;;;2.53;1.30;;;21.50;82.30;;;;;;6191899;23;20013;-83
2022/06/29 00:44:18;;;;;;;3.75;1.58;;;21.50;83.20;;;;;;6164812;23;20009;-84
2022/06/29 00:46:51;;;;;;;3.30;1.70;;;21.50;82.50;;;;;;6169640;23;20005;-81
2022/06/29 00:49:20;;;;;;;3.55;1.40;;;21.40;82.50;;;;;;6176273;23;20040;-83
2022/06/29 00:51:52;;;;;;;2.42;1.20;;;21.40;82.90;;;;;;6164594;23;20005;-82
2022/06/29 00:54:20;;;;;;;3.20;1.35;;;21.40;82.40;;;;;;6165115;23;20342;-81
2022/06/29 00:56:47;;;;;;;3.80;1.52;;;21.40;83.70;;;;;;6164180;23;20001;-81
2022/06/29 00:59:20;;;;;;;3.70;1.50;;;21.40;83.90;;;;;;6189578;23;20440;-80
2022/06/29 01:01:46;;;;;;;4.75;1.48;;;21.40;84.30;;;;;;6164508;23;20009;-80
2022/06/29 01:04:13;;;;;;;2.58;1.40;;;21.30;84.20;;;;;;6189547;23;20016;-78
2022/06/29 01:06:39;;;;;;;2.95;1.30;;;21.40;84.80;;;;;;6189117;23;20032;-81
2022/06/29 01:09:05;;;;;;;3.03;1.40;;;21.30;84.50;;;;;;6163374;23;20024;-80
2022/06/29 01:11:32;;;;;;;3.45;1.30;;;21.30;84.60;;;;;;6190950;23;20076;-80
2022/06/29 01:13:58;;;;;;;3.83;1.17;;;21.30;85.10;;;;;;6191332;23;19997;-84
2022/06/29 01:16:24;;;;;;;5.80;1.70;;;21.30;85.10;;;;;;6191183;23;19997;-80
2022/06/29 01:18:51;;;;;;;4.18;1.45;;;;;;;;;;6191294;23;20623;-82
2022/06/29 01:21:19;;;;;;;2.58;1.52;;;21.20;85.40;;;;;;6190576;23;19997;-82
2022/06/29 01:23:45;;;;;;;9.65;3.65;;;21.20;85.80;;;;;;6164058;23;20032;-83
2022/06/29 01:26:11;;;;;;;42.33;16.55;;;21.20;86.20;;;;;;6164367;23;20013;-81
2022/06/29 01:28:44;;;;;;;6.47;3.03;;;21.20;86.70;;;;;;6163572;23;20088;-82
2022/06/29 01:31:17;;;;;;;4.60;1.77;;;21.20;87.40;;;;;;6158571;23;20009;-80
2022/06/29 01:33:45;;;;;;;3.10;1.60;;;21.10;87.80;;;;;;6160443;23;20001;-84
2022/06/29 01:36:12;;;;;;;4.70;1.70;;;21.10;88.20;;;;;;6163616;23;20005;-84
2022/06/29 01:38:38;;;;;;;3.67;1.42;;;21.10;88.50;;;;;;6162118;23;20056;-81
2022/06/29 01:41:06;;;;;;;3.88;1.58;;;21.10;89.40;;;;;;6187775;23;20009;-82
2022/06/29 01:43:32;;;;;;;4.72;1.55;;;21.10;89.30;;;;;;6187603;23;20009;-84
2022/06/29 01:45:58;;;;;;;3.38;1.50;;;21.00;89.20;;;;;;6188397;23;20401;-81
2022/06/29 01:48:24;;;;;;;3.38;1.58;;;21.00;88.70;;;;;;6163552;23;20005;-80
2022/06/29 01:50:50;;;;;;;3.45;1.13;;;20.90;89.40;;;;;;6188663;23;20088;-83
2022/06/29 01:53:16;;;;;;;3.75;1.33;;;20.90;88.70;;;;;;6189448;23;20331;-81
2022/06/29 01:55:43;;;;;;;3.22;1.63;;;20.90;89.10;;;;;;6186175;23;20032;-83
2022/06/29 01:58:09;;;;;;;9.23;3.25;;;20.80;88.70;;;;;;6158470;23;20005;-81
2022/06/29 02:00:35;;;;;;;5.20;1.50;;;20.80;88.60;;;;;;6185489;23;20005;-82
2022/06/29 02:03:00;;;;;;;3.47;1.27;;;20.80;89.00;;;;;;6186336;23;20009;-83
2022/06/29 02:05:26;;;;;;;2.33;1.10;;;20.80;89.40;;;;;;6187869;23;20283;-80
2022/06/29 02:07:52;;;;;;;1.95;1.25;;;20.80;89.40;;;;;;6186465;23;20016;-82
2022/06/29 02:10:17;;;;;;;2.83;1.30;;;20.80;90.10;;;;;;6183995;23;20092;-82
2022/06/29 02:12:43;;;;;;;10.13;4.68;;;20.80;90.00;;;;;;6185125;23;20012;-79
2022/06/29 02:15:09;;;;;;;3.97;1.40;;;20.70;90.30;;;;;;6182352;23;20005;-80
2022/06/29 02:17:35;;;;;;;1.92;1.13;;;20.70;90.40;;;;;;6155659;23;20021;-81
2022/06/29 02:20:01;;;;;;;1.92;1.23;;;20.70;90.70;;;;;;6184144;23;20017;-82
2022/06/29 02:22:26;;;;;;;3.63;1.70;;;20.60;90.70;;;;;;6186339;23;20091;-82
2022/06/29 02:24:52;;;;;;;3.22;1.55;;;20.70;90.90;;;;;;6185006;23;20009;-82
2022/06/29 02:27:18;;;;;;;2.30;1.40;;;20.70;91.00;;;;;;6184149;23;20005;-83
2022/06/29 02:29:44;;;;;;;6.50;2.58;;;20.70;91.10;;;;;;6181392;23;20013;-81
2022/06/29 02:34:54;;;;;;;3.10;1.40;;;20.60;91.20;;;;;;6186012;23;20063;-83
2022/06/29 02:37:20;;;;;;;3.53;1.63;;;20.60;91.60;;;;;;6184101;23;20001;-84
2022/06/29 02:39:46;;;;;;;5.22;1.40;;;20.50;91.70;;;;;;6186358;23;20024;-81
2022/06/29 02:42:13;;;;;;;2.85;1.58;;;20.50;91.90;;;;;;6185468;23;20009;-80
2022/06/29 02:44:39;;;;;;;3.80;1.70;;;20.40;92.10;;;;;;6157080;23;20006;-80
2022/06/29 02:47:06;;;;;;;3.30;1.35;;;20.40;92.50;;;;;;6157882;23;20005;-81
2022/06/29 02:49:33;;;;;;;2.50;1.20;;;;;;;;;;6157818;23;20020;-83
2022/06/29 02:51:58;;;;;;;2.70;1.38;;;20.40;92.10;;;;;;6157418;23;19997;-79
2022/06/29 02:54:24;;;;;;;9.27;4.35;;;;;;;;;;6182629;23;20088;-82
2022/06/29 02:56:51;;;;;;;5.85;1.45;;;20.40;92.10;;;;;;6186735;23;20499;-81
2022/06/29 02:59:16;;;;;;;5.03;1.52;;;20.40;92.30;;;;;;6156983;23;20018;-84
2022/06/29 03:01:42;;;;;;;3.85;1.42;;;20.40;92.40;;;;;;6183090;23;20009;-82
2022/06/29 03:04:08;;;;;;;2.47;1.30;;;20.40;92.70;;;;;;6184412;23;20012;-83
2022/06/29 03:06:34;;;;;;;2.67;1.10;;;20.40;92.60;;;;;;6185454;23;20009;-80
2022/06/29 03:08:59;;;;;;;2.40;1.30;;;20.30;92.60;;;;;;6185020;23;20318;-81
2022/06/29 03:11:25;;;;;;;1.90;1.10;;;20.40;92.40;;;;;;6185768;23;19997;-83
2022/06/29 03:13:51;;;;;;;3.83;1.50;;;20.30;92.50;;;;;;6185218;23;20006;-85
2022/06/29 03:16:17;;;;;;;3.22;1.70;;;20.30;92.60;;;;;;6186518;23;20338;-82
2022/06/29 03:18:43;;;;;;;11.50;3.58;;;20.30;92.70;;;;;;6164979;23;20009;-82
2022/06/29 03:21:08;;;;;;;2.95;1.38;;;20.30;92.70;;;;;;6163199;23;20028;-81
2022/06/29 03:23:34;;;;;;;4.22;1.23;;;20.30;92.60;;;;;;6186971;23;20036;-81
2022/06/29 03:26:00;;;;;;;5.53;1.80;;;20.30;92.80;;;;;;6185497;23;20008;-81
2022/06/29 03:28:25;;;;;;;3.22;1.27;;;20.20;92.80;;;;;;6186485;23;20387;-80
2022/06/29 03:30:51;;;;;;;7.15;1.35;;;;;;;;;;6183175;23;20032;-81
2022/06/29 03:33:17;;;;;;;4.07;1.40;;;;;;;;;;6160035;23;20334;-81
2022/06/29 03:35:43;;;;;;;5.25;1.50;;;20.20;93.00;;;;;;6158788;23;20025;-80
2022/06/29 03:38:09;;;;;;;4.25;1.40;;;;;;;;;;6182002;23;20038;-79
2022/06/29 03:40:35;;;;;;;2.75;1.30;;;;;;;;;;6157813;23;20005;-82
2022/06/29 03:43:01;;;;;;;3.58;1.70;;;20.20;93.40;;;;;;6157790;23;20017;-81
2022/06/29 03:45:26;;;;;;;4.13;1.50;;;20.20;93.50;;;;;;6182759;23;20043;-82
2022/06/29 03:47:52;;;;;;;4.57;1.50;;;20.20;93.70;;;;;;6183885;23;20013;-81
2022/06/29 03:50:18;;;;;;;3.30;1.38;;;20.20;93.80;;;;;;6158371;23;20005;-80
2022/06/29 03:52:44;;;;;;;2.67;1.35;;;20.20;94.00;;;;;;6155863;23;20005;-82
2022/06/29 03:55:09;;;;;;;2.60;1.40;;;20.20;94.20;;;;;;6182741;23;20007;-81
2022/06/29 03:57:35;;;;;;;3.05;1.10;;;20.20;94.20;;;;;;6180591;23;20084;-80
2022/06/29 04:00:03;;;;;;;3.90;1.45;;;20.10;94.40;;;;;;6181883;23;20368;-79
2022/06/29 04:02:29;;;;;;;3.03;1.30;;;20.10;94.40;;;;;;6159147;23;20005;-80
2022/06/29 04:04:54;;;;;;;2.80;1.42;;;20.10;94.80;;;;;;6186429;23;20511;-83
2022/06/29 04:07:20;;;;;;;4.65;1.80;;;20.10;94.60;;;;;;6183580;23;20012;-80
2022/06/29 04:09:46;;;;;;;3.53;1.50;;;20.10;94.70;;;;;;6180625;23;20024;-79
2022/06/29 04:12:11;;;;;;;3.63;1.50;;;20.10;94.20;;;;;;6181422;23;20001;-80
2022/06/29 04:14:37;;;;;;;5.80;1.38;;;20.10;94.40;;;;;;6162504;23;20005;-80
2022/06/29 04:17:03;;;;;;;4.55;1.30;;;20.10;94.30;;;;;;6185857;23;20084;-82
2022/06/29 04:19:29;;;;;;;4.93;1.65;;;20.00;94.40;;;;;;6174362;23;20040;-85
2022/06/29 04:21:55;;;;;;;3.90;1.50;;;20.10;94.70;;;;;;6223492;23;20005;-86
2022/06/29 04:24:22;;;;;;;3.25;1.40;;;20.10;94.60;;;;;;6197885;23;20001;-83
2022/06/29 04:26:47;;;;;;;3.63;1.70;;;20.10;94.60;;;;;;6167941;23;20024;-84
2022/06/29 04:29:13;;;;;;;3.45;1.30;;;20.00;94.50;;;;;;6167645;23;20081;-83
2022/06/29 04:31:39;;;;;;;5.32;1.40;;;20.00;94.70;;;;;;6166836;23;20005;-84
2022/06/29 04:34:05;;;;;;;2.92;1.60;;;;;;;;;;6166688;23;20033;-84
2022/06/29 04:36:32;;;;;;;2.67;1.50;;;20.10;94.50;;;;;;6192740;23;20001;-84
2022/06/29 04:38:58;;;;;;;2.63;1.30;;;;;;;;;;6167498;23;20029;-85
2022/06/29 04:41:24;;;;;;;3.40;1.60;;;;;;;;;;6193115;23;20035;-86
2022/06/29 04:43:53;;;;;;;4.18;1.63;;;20.10;94.50;;;;;;6193737;23;20005;-82
2022/06/29 04:46:19;;;;;;;4.30;1.50;;;;;;;;;;6167626;23;20009;-83
2022/06/29 04:48:47;;;;;;;3.75;1.65;;;20.20;94.80;;;;;;6192909;23;20016;-85
2022/06/29 04:51:13;;;;;;;5.53;1.65;;;;;;;;;;6192174;23;20005;-85
2022/06/29 04:53:39;;;;;;;2.00;1.10;;;;;;;;;;6191120;23;20001;-84
2022/06/29 04:56:05;;;;;;;3.72;1.50;;;20.20;94.90;;;;;;6191674;23;20020;-82
2022/06/29 04:58:30;;;;;;;7.32;1.55;;;20.20;94.50;;;;;;6192355;23;20076;-82
2022/06/29 05:00:56;;;;;;;4.75;1.63;;;20.20;94.80;;;;;;6166458;23;20025;-84
2022/06/29 05:03:22;;;;;;;4.60;1.38;;;20.20;94.60;;;;;;6166126;23;20013;-88
2022/06/29 05:05:48;;;;;;;3.33;1.30;;;20.20;94.80;;;;;;6192172;23;20076;-85
2022/06/29 05:08:17;;;;;;;3.03;1.52;;;20.20;94.80;;;;;;6160839;23;20032;-83
2022/06/29 05:10:43;;;;;;;5.07;1.70;;;20.20;94.80;;;;;;6188070;23;20005;-83
2022/06/29 05:13:09;;;;;;;4.97;1.80;;;20.20;94.70;;;;;;6158711;23;20095;-82
2022/06/29 05:15:35;;;;;;;4.88;1.90;;;20.20;94.90;;;;;;6160045;23;20001;-83
2022/06/29 05:18:01;;;;;;;4.55;1.58;;;;;;;;;;6161725;23;20017;-86
2022/06/29 05:20:27;;;;;;;3.47;1.67;;;20.30;94.70;;;;;;6188517;23;20016;-84
2022/06/29 05:22:53;;;;;;;4.10;1.50;;;20.30;94.70;;;;;;6160943;23;20005;-83
2022/06/29 05:25:20;;;;;;;7.07;1.58;;;20.40;94.60;;;;;;6163456;23;20021;-85
2022/06/29 05:27:46;;;;;;;5.53;1.65;;;20.40;94.60;;;;;;6164108;23;20037;-84
2022/06/29 05:30:12;;;;;;;2.10;1.23;;;;;;;;;;6162674;23;20027;-84
2022/06/29 05:32:38;;;;;;;3.30;2.00;;;20.50;94.40;;;;;;6197331;23;20020;-82
2022/06/29 05:35:05;;;;;;;2.60;1.45;;;20.50;94.80;;;;;;6205311;23;20032;-83
2022/06/29 05:37:31;;;;;;;5.80;1.70;;;20.60;94.50;;;;;;6163116;23;20009;-83
2022/06/29 05:39:57;;;;;;;4.25;1.70;;;20.80;94.40;;;;;;6189111;23;20012;-81
2022/06/29 05:42:23;;;;;;;2.45;1.30;;;20.70;93.50;;;;;;6163749;23;20424;-83
2022/06/29 05:44:49;;;;;;;3.10;1.30;;;20.80;93.70;;;;;;6161843;23;20336;-84
2022/06/29 05:47:15;;;;;;;5.38;1.30;;;20.80;92.90;;;;;;6160959;23;20005;-84
2022/06/29 05:49:41;;;;;;;3.83;1.50;;;20.70;93.10;;;;;;6185373;23;20012;-82
2022/06/29 05:52:07;;;;;;;5.07;1.60;;;20.80;93.40;;;;;;6168511;23;20001;-85
2022/06/29 05:54:33;;;;;;;5.35;1.80;;;20.90;93.30;;;;;;6176980;23;20013;-84
2022/06/29 05:56:59;;;;;;;6.05;1.73;;;20.80;93.50;;;;;;6182294;23;19997;-84
2022/06/29 05:59:27;;;;;;;2.92;1.52;;;21.00;92.80;;;;;;6181365;23;20205;-86
2022/06/29 06:01:53;;;;;;;5.00;1.63;;;21.00;92.80;;;;;;6206250;23;20016;-84
2022/06/29 06:04:19;;;;;;;4.57;1.73;;;21.00;92.80;;;;;;6175367;23;20387;-83
2022/06/29 06:06:44;;;;;;;4.53;1.92;;;21.10;93.30;;;;;;6189990;23;20051;-82
2022/06/29 06:09:10;;;;;;;5.75;1.95;;;21.20;93.30;;;;;;6160124;23;20463;-81
2022/06/29 06:11:36;;;;;;;3.38;1.40;;;21.40;93.00;;;;;;6161955;23;20450;-83
2022/06/29 06:14:02;;;;;;;4.60;1.70;;;21.30;93.20;;;;;;6162395;23;20009;-84
2022/06/29 06:16:28;;;;;;;3.83;1.60;;;21.50;92.80;;;;;;6184698;23;20012;-82
2022/06/29 06:18:54;;;;;;;4.40;1.80;;;24.00;93.40;;;;;;6160643;23;20033;-80
2022/06/29 06:21:19;;;;;;;6.35;1.67;;;21.60;92.60;;;;;;6189408;23;20067;-81
2022/06/29 06:23:48;;;;;;;3.28;1.75;;;21.70;92.30;;;;;;6162884;23;20013;-81
2022/06/29 06:26:15;;;;;;;5.18;1.98;;;21.80;91.90;;;;;;6161433;23;20069;-82
2022/06/29 06:28:41;;;;;;;4.78;2.13;;;21.80;92.10;;;;;;6188751;23;20016;-80
2022/06/29 06:31:07;;;;;;;6.30;1.67;;;21.90;92.00;;;;;;6162287;23;20376;-80
2022/06/29 06:33:36;;;;;;;4.47;1.80;;;22.00;92.00;;;;;;6162708;23;20009;-83
2022/06/29 06:36:02;;;;;;;5.90;1.70;;;22.10;91.90;;;;;;6163628;23;20009;-81
2022/06/29 06:38:27;;;;;;;6.85;1.60;;;22.10;91.80;;;;;;6189817;23;20001;-84
2022/06/29 06:43:37;;;;;;;5.35;2.35;;;22.30;91.30;;;;;;6189403;23;20061;-83
2022/06/29 06:46:05;;;;;;;3.47;1.90;;;22.40;91.10;;;;;;6162745;23;20424;-82
2022/06/29 06:48:31;;;;;;;3.03;1.70;;;22.40;91.30;;;;;;6161623;23;20439;-81
2022/06/29 06:50:57;;;;;;;5.38;1.73;;;22.50;90.90;;;;;;6157658;23;20005;-79
2022/06/29 06:53:23;;;;;;;8.35;1.98;;;22.40;91.10;;;;;;6158766;23;20305;-83
2022/06/29 06:55:49;;;;;;;6.97;1.88;;;22.50;90.60;;;;;;6187546;23;20048;-80
2022/06/29 06:58:14;;;;;;;4.70;1.70;;;22.50;90.60;;;;;;6161962;23;20025;-80
2022/06/29 07:00:40;;;;;;;3.92;1.50;;;22.60;90.70;;;;;;6175440;23;19995;-81
2022/06/29 07:03:06;;;;;;;3.75;1.50;;;22.60;90.30;;;;;;6183655;23;19993;-79
2022/06/29 07:05:31;;;;;;;5.05;1.75;;;22.60;90.50;;;;;;6185286;23;20001;-79
2022/06/29 07:07:57;;;;;;;7.13;1.80;;;22.70;90.10;;;;;;6184225;23;20053;-78
2022/06/29 07:10:23;;;;;;;5.85;2.05;;;22.70;90.10;;;;;;6183732;23;20009;-81
2022/06/29 07:12:48;;;;;;;3.75;1.63;;;22.70;90.10;;;;;;6184761;23;19997;-79
2022/06/29 07:15:14;;;;;;;6.70;2.17;;;22.70;90.40;;;;;;6209779;23;20024;-79
2022/06/29 07:17:40;;;;;;;5.35;2.10;;;22.90;89.90;;;;;;6184627;23;20017;-79
2022/06/29 07:20:06;;;;;;;8.95;2.13;;;22.90;90.00;;;;;;6184051;23;20069;-78
2022/06/29 07:22:32;;;;;;;6.85;2.13;;;22.90;89.00;;;;;;6209005;23;20012;-80
2022/06/29 07:24:58;;;;;;;4.63;1.88;;;22.80;89.50;;;;;;6197679;23;20084;-81
2022/06/29 07:27:23;;;;;;;4.97;1.80;;;22.80;90.00;;;;;;6189954;23;20028;-80
2022/06/29 07:29:52;;;;;;;4.90;1.60;;;22.90;89.80;;;;;;6187121;23;20044;-84
2022/06/29 07:32:18;;;;;;;5.97;2.03;;;22.90;89.70;;;;;;6189279;23;20098;-81
2022/06/29 07:34:44;;;;;;;4.78;1.80;;;22.80;89.50;;;;;;6163613;23;20351;-81
2022/06/29 07:37:10;;;;;;;5.03;1.90;;;22.80;89.70;;;;;;6191571;23;19997;-82
2022/06/29 07:39:36;;;;;;;4.93;1.70;;;22.80;89.80;;;;;;6165671;23;20004;-80
2022/06/29 07:42:02;;;;;;;6.40;1.60;;;22.90;89.20;;;;;;6162714;23;20013;-81
2022/06/29 07:44:28;;;;;;;2.65;1.60;;;22.90;89.20;;;;;;6163402;23;19997;-80
2022/06/29 07:46:54;;;;;;;5.50;2.00;;;22.90;89.50;;;;;;6163574;23;20009;-80
2022/06/29 07:49:20;;;;;;;3.03;1.50;;;22.80;89.70;;;;;;6162623;23;20092;-81
2022/06/29 07:51:46;;;;;;;4.53;2.03;;;22.80;89.50;;;;;;6162775;23;20008;-81
2022/06/29 07:54:11;;;;;;;3.50;1.65;;;22.70;90.10;;;;;;6189927;23;20001;-81
2022/06/29 07:56:37;;;;;;;4.75;1.42;;;22.80;89.40;;;;;;6167196;23;20032;-81
2022/06/29 07:59:03;;;;;;;4.03;1.52;;;22.80;89.10;;;;;;6189498;23;20001;-81
2022/06/29 08:01:29;;;;;;;4.80;1.88;;;25.50;90.50;;;;;;6164003;23;20011;-81
2022/06/29 08:03:55;;;;;;;10.40;1.95;;;22.90;88.50;;;;;;6190459;23;20005;-80
2022/06/29 08:06:25;;;;;;;5.47;1.92;;;23.00;88.80;;;;;;6164003;23;20009;-81
2022/06/29 08:08:51;;;;;;;6.47;2.10;;;23.10;88.50;;;;;;6163966;23;20028;-80
2022/06/29 08:11:17;;;;;;;5.55;1.73;;;23.10;88.70;;;;;;6163070;23;20005;-80
2022/06/29 08:13:43;;;;;;;3.70;1.60;;;23.30;88.60;;;;;;6162990;23;20001;-79
2022/06/29 08:16:09;;;;;;;4.72;1.77;;;23.40;88.30;;;;;;6190189;23;20001;-82
2022/06/29 08:18:35;;;;;;;4.28;1.70;;;23.50;87.20;;;;;;6162698;23;20001;-79
2022/06/29 08:21:04;;;;;;;5.40;1.70;;;23.60;87.10;;;;;;6161736;23;20020;-80
2022/06/29 08:23:30;;;;;;;4.55;1.90;;;23.70;87.00;;;;;;6162512;23;20489;-80
2022/06/29 08:25:57;;;;;;;3.08;1.52;;;23.70;86.70;;;;;;6162618;23;20436;-83
2022/06/29 08:28:25;;;;;;;3.97;1.80;;;23.80;86.60;;;;;;6161499;23;20020;-82
2022/06/29 08:30:51;;;;;;;5.20;1.85;;;23.80;86.50;;;;;;6163750;23;20052;-78
2022/06/29 08:33:18;;;;;;;6.75;2.22;;;;;;;;;;6160615;23;20001;-80
2022/06/29 08:35:44;;;;;;;4.18;1.55;;;23.80;85.60;;;;;;6188932;23;20008;-81
2022/06/29 08:38:09;;;;;;;5.38;1.95;;;23.80;86.00;;;;;;6162367;23;20002;-80
2022/06/29 08:40:44;;;;;;;5.05;2.10;;;23.70;86.10;;;;;;6160791;23;20017;-79
2022/06/29 08:43:15;;;;;;;7.20;2.30;;;23.80;86.20;;;;;;6162497;23;20012;-81
2022/06/29 08:45:52;;;;;;;7.07;1.70;;;23.90;86.10;;;;;;6162781;23;20009;-81
2022/06/29 08:48:17;;;;;;;3.80;1.80;;;23.90;86.30;;;;;;6162836;23;20067;-79
2022/06/29 08:50:52;;;;;;;5.55;2.10;;;23.90;85.50;;;;;;6188992;23;20313;-82
2022/06/29 08:53:18;;;;;;;3.58;1.65;;;23.90;85.40;;;;;;6190071;23;20001;-81
2022/06/29 08:55:46;;;;;;;7.57;2.58;;;24.10;85.10;;;;;;6164227;23;20007;-80
2022/06/29 08:58:18;;;;;;;4.45;1.75;;;24.10;84.90;;;;;;6189850;23;20021;-81
2022/06/29 09:00:44;;;;;;;4.07;1.95;;;24.10;84.90;;;;;;6188117;23;20005;-81
2022/06/29 09:03:10;;;;;;;4.80;1.60;;;24.20;85.00;;;;;;6189554;23;20024;-82
2022/06/29 09:05:39;;;;;;;5.45;2.13;;;24.10;84.50;;;;;;6163716;23;20156;-78
2022/06/29 09:08:05;;;;;;;3.90;1.80;;;24.20;84.70;;;;;;6162299;23;20013;-81
2022/06/29 09:10:31;;;;;;;5.72;1.52;;;24.30;84.20;;;;;;6160574;23;20361;-79
2022/06/29 09:13:01;;;;;;;4.45;1.88;;;24.40;83.80;;;;;;6162152;23;20008;-82
2022/06/29 09:15:32;;;;;;;6.22;1.90;;;24.40;83.70;;;;;;6187498;23;20005;-82
2022/06/29 09:17:58;;;;;;;4.88;1.95;;;24.60;83.50;;;;;;6162154;23;20336;-79
2022/06/29 09:20:24;;;;;;;5.95;2.10;;;24.50;83.50;;;;;;6160237;23;20428;-80
2022/06/29 09:22:55;;;;;;;6.38;2.08;;;24.70;82.80;;;;;;6185108;23;20088;-81
2022/06/29 09:25:22;;;;;;;5.40;2.00;;;24.70;82.50;;;;;;6161746;23;20016;-80
2022/06/29 09:27:48;;;;;;;7.50;2.60;;;24.90;82.60;;;;;;6162052;23;20005;-80
2022/06/29 09:30:35;;;;;;;5.03;1.98;;;25.00;81.80;;;;;;6161800;23;20009;-81
2022/06/29 09:33:06;;;;;;;3.45;2.00;;;25.10;81.20;;;;;;6189082;23;20049;-82
2022/06/29 09:35:33;;;;;;;5.03;1.80;;;25.20;80.70;;;;;;6162160;23;20029;-80
2022/06/29 09:38:23;;;;;;;4.28;1.85;;;25.20;81.10;;;;;;6161508;23;20001;-83
2022/06/29 09:41:01;;;;;;;5.15;2.25;;;25.50;81.00;;;;;;6187782;23;20009;-82
2022/06/29 09:43:27;;;;;;;5.18;1.90;;;25.50;81.30;;;;;;6160791;23;20092;-82
2022/06/29 09:45:54;;;;;;;7.03;2.05;;;25.70;79.80;;;;;;6163003;23;20013;-82
2022/06/29 09:48:23;;;;;;;4.93;1.73;;;25.70;79.90;;;;;;6162186;23;20088;-82
2022/06/29 09:50:52;;;;;;;6.90;1.83;;;25.70;80.00;;;;;;6159910;23;20009;-82
2022/06/29 09:53:19;;;;;;;5.13;1.80;;;25.80;79.10;;;;;;6162145;23;20025;-81
2022/06/29 09:55:54;;;;;;;4.55;2.00;;;25.90;79.00;;;;;;6162251;23;20020;-83
2022/06/29 09:58:28;;;;;;;6.93;2.00;;;25.90;78.80;;;;;;6189250;23;20001;-81
2022/06/29 10:03:40;;;;;;;3.78;1.83;;;26.10;77.60;;;;;;6190884;23;20016;-81
2022/06/29 10:06:09;;;;;;;4.60;1.80;;;26.10;77.50;;;;;;6164831;23;20019;-80
2022/06/29 10:08:35;;;;;;;4.35;1.52;;;26.30;78.70;;;;;;6165170;23;20005;-78
2022/06/29 10:14:02;;;;;;;6.88;1.63;;;26.70;77.50;;;;;;6187964;23;20012;-82
2022/06/29 10:16:51;;;;;;;7.57;1.70;;;26.80;76.20;;;;;;6188507;23;20001;-80
2022/06/29 10:20:00;;;;;;;5.67;2.00;;;26.80;76.20;;;;;;6160641;23;20021;-80
2022/06/29 10:22:28;;;;;;;7.70;1.50;;;26.70;77.10;;;;;;6110043;23;20008;-79
2022/06/29 10:25:02;;;;;;;4.05;1.80;;;26.70;76.80;;;;;;6183242;23;20005;-81
2022/06/29 10:27:28;;;;;;;5.10;1.80;;;26.60;77.20;;;;;;6167090;23;20001;-80
2022/06/29 10:30:20;;;;;;;6.22;1.83;;;26.70;77.00;;;;;;6190475;23;20317;-80
2022/06/29 10:32:47;;;;;;;5.63;1.70;;;26.70;76.90;;;;;;6187400;23;20440;-81
2022/06/29 10:35:13;;;;;;;4.10;1.55;;;26.90;76.20;;;;;;6162468;23;20467;-81
2022/06/29 10:37:53;;;;;;;6.65;1.70;;;27.10;75.30;;;;;;6161623;23;20001;-82
2022/06/29 10:40:24;;;;;;;3.33;1.48;;;27.20;75.10;;;;;;6167018;23;20005;-78
2022/06/29 10:43:09;;;;;;;3.03;1.63;;;27.30;74.60;;;;;;6202266;23;20005;-79
2022/06/29 10:45:46;;;;;;;4.38;1.63;;;27.50;75.00;;;;;;6176776;23;20528;-79
2022/06/29 10:48:14;;;;;;;5.07;1.60;;;27.80;74.10;;;;;;6205414;23;19997;-80
2022/06/29 10:50:42;;;;;;;4.85;1.60;;;27.70;74.10;;;;;;6179987;23;19993;-80
2022/06/29 10:53:16;;;;;;;4.25;2.00;;;27.60;74.40;;;;;;6205170;23;19988;-80
2022/06/29 10:55:47;;;;;;;8.07;2.03;;;27.50;75.20;;;;;;6172252;23;20067;-80
2022/06/29 10:58:14;;;;;;;5.80;1.63;;;27.40;75.20;;;;;;6151550;23;20020;-79
2022/06/29 11:00:41;;;;;;;3.67;1.88;;;27.40;75.20;;;;;;6180494;23;20021;-79
2022/06/29 11:03:09;;;;;;;5.10;1.70;;;27.20;73.60;;;;;;6174188;23;20012;-81
2022/06/29 11:05:36;;;;;;;4.78;1.42;;;27.00;74.20;;;;;;6191563;23;20027;-80
2022/06/29 11:13:32;;;;;;;3.95;1.58;;;26.90;74.50;;;;;;6190842;23;20519;-82
2022/06/29 11:15:59;;;;;;;4.82;1.85;;;27.10;74.00;;;;;;6189212;23;20008;-81
2022/06/29 11:18:28;;;;;;;4.53;1.70;;;27.40;73.80;;;;;;6162334;23;20012;-79
2022/06/29 11:20:55;;;;;;;4.28;1.45;;;27.50;73.30;;;;;;6162949;23;20071;-82
2022/06/29 11:23:27;;;;;;;4.47;1.60;;;27.60;73.20;;;;;;6162162;23;20185;-81
2022/06/29 11:25:56;;;;;;;4.18;1.48;;;27.80;72.70;;;;;;6163588;23;20392;-81
2022/06/29 11:28:29;;;;;;;5.30;1.80;;;27.60;71.90;;;;;;6160823;23;20490;-79
2022/06/29 11:31:02;;;;;;;4.72;1.70;;;27.50;72.40;;;;;;6163107;23;20401;-79
2022/06/29 11:33:31;;;;;;;3.80;1.73;;;27.50;72.60;;;;;;6162162;23;20004;-81
2022/06/29 11:36:02;;;;;;;5.97;2.00;;;27.40;72.90;;;;;;6161795;23;20005;-83
2022/06/29 11:38:28;;;;;;;4.80;1.52;;;27.70;72.70;;;;;;6161964;23;20032;-83
2022/06/29 11:40:57;;;;;;;3.45;1.50;;;27.90;72.30;;;;;;6187271;23;20332;-81
2022/06/29 11:43:23;;;;;;;3.75;1.52;;;28.20;71.70;;;;;;6163013;23;20017;-83
2022/06/29 11:45:56;;;;;;;3.38;1.50;;;28.30;69.10;;;;;;6189853;23;20060;-83
2022/06/29 11:48:29;;;;;;;4.53;3.00;;;27.20;66.50;;;;;;6164796;23;20005;-82
2022/06/29 11:50:56;;;;;;;5.50;1.77;;;;;;;;;;6163342;23;20005;-83
2022/06/29 11:53:53;;;;;;;3.83;2.85;;;28.70;68.20;;;;;;6194729;23;20012;-83
2022/06/29 11:56:26;;;;;;;4.55;1.85;;;28.70;67.90;;;;;;6167163;23;20001;-81
2022/06/29 11:58:55;;;;;;;3.42;1.65;;;28.70;68.10;;;;;;6192471;23;20001;-81
2022/06/29 12:01:23;;;;;;;;;;;28.60;69.50;;;;;;6164028;23;20005;-80
2022/06/29 12:03:53;;;;;;;3.83;1.88;;;28.70;67.40;;;;;;6185326;23;19904;-80
2022/06/29 12:06:22;;;;;;;3.35;2.17;;;28.60;68.20;;;;;;6184584;23;20008;-80
2022/06/29 12:08:49;;;;;;;5.20;2.65;;;28.60;68.70;;;;;;6160919;23;20012;-81
2022/06/29 12:11:15;;;;;;;4.35;2.08;;;26.90;68.90;;;;;;6161308;23;20458;-79
2022/06/29 12:13:42;;;;;;;4.07;2.00;;;28.60;69.00;;;;;;6159970;23;20001;-79
2022/06/29 12:16:09;;;;;;;6.68;2.28;;;28.70;69.10;;;;;;6183533;23;19997;-81
2022/06/29 12:18:34;;;;;;;5.90;1.92;;;28.80;68.00;;;;;;6159083;23;20081;-82
2022/06/29 12:21:00;;;;;;;2.88;1.60;;;28.80;69.30;;;;;;6163061;23;20009;-83
2022/06/29 12:23:28;;;;;;;3.88;1.77;;;28.80;69.00;;;;;;6162465;23;20008;-82
2022/06/29 12:25:54;;;;;;;5.97;2.05;;;;;;;;;;6161910;23;20002;-81
2022/06/29 12:28:20;;;;;;;5.60;1.80;;;29.00;68.40;;;;;;6187649;23;20009;-83
2022/06/29 12:30:45;;;;;;;4.03;2.00;;;28.80;68.90;;;;;;6162756;23;20159;-81
2022/06/29 12:33:11;;;;;;;5.38;1.95;;;28.80;68.50;;;;;;6189204;23;20027;-82
2022/06/29 12:35:37;;;;;;;3.42;1.90;;;28.80;69.10;;;;;;6161294;23;20455;-80
2022/06/29 12:38:03;;;;;;;4.28;1.98;;;29.00;68.30;;;;;;6163289;23;20031;-81
2022/06/29 12:40:32;;;;;;;4.85;2.28;;;29.00;68.00;;;;;;6162188;23;20013;-83
2022/06/29 12:42:58;;;;;;;8.27;2.30;;;29.00;68.60;;;;;;6161278;23;20009;-83
2022/06/29 12:45:24;;;;;;;4.00;2.25;;;29.00;68.40;;;;;;6161949;23;20012;-82
2022/06/29 12:47:50;;;;;;;3.10;2.00;;;;;;;;;;6188999;23;20340;-83
2022/06/29 12:50:16;;;;;;;7.40;2.22;;;29.30;67.50;;;;;;6186382;23;20016;-82
2022/06/29 12:52:46;;;;;;;4.13;2.03;;;29.30;67.40;;;;;;6161601;23;20475;-84
2022/06/29 12:55:15;;;;;;;;;;;29.40;67.20;;;;;;6160254;23;20527;-82
2022/06/29 12:57:42;;;;;;;4.03;2.10;;;29.60;67.00;;;;;;6184245;23;19959;-83
2022/06/29 13:00:09;;;;;;;4.93;2.03;;;29.70;67.10;;;;;;6161850;23;20013;-83
2022/06/29 13:02:35;;;;;;;4.45;2.15;;;29.60;67.20;;;;;;6187521;23;20064;-83
2022/06/29 13:05:01;;;;;;;4.95;2.20;;;29.50;67.70;;;;;;6160681;23;20009;-80
2022/06/29 13:07:26;;;;;;;3.35;1.90;;;29.40;67.40;;;;;;6158511;23;20029;-81
2022/06/29 13:09:53;;;;;;;6.43;2.20;;;29.20;67.20;;;;;;6159035;23;20013;-80